sensor_id;sensor_type;location;lat;lon;timestamp;P1;durP1;ratioP1;P2;durP2;ratioP2
4794;SDS011;2411;47.060;15.064;2024-01-11T00:02:13;8.00;;;5.40;;
4794;SDS011;2411;47.060;15.064;2024-01-11T00:04:40;11.53;;;6.60;;
4794;SDS011;2411;47.060;15.064;2024-01-11T00:07:07;8.80;;;6.17;;
4794;SDS011;2411;47.060;15.064;2024-01-11T00:09:41;12.20;;;7.27;;
4794;SDS011;2411;47.060;15.064;2024-01-11T00:12:09;13.83;;;6.77;;
4794;SDS011;2411;47.060;15.064;2024-01-11T00:14:36;9.67;;;6.07;;
4794;SDS011;2411;47.060;15.064;2024-01-11T00:17:04;7.40;;;5.87;;
4794;SDS011;2411;47.060;15.064;2024-01-11T00:19:31;5.93;;;5.17;;
4794;SDS011;2411;47.060;15.064;2024-01-11T00:21:58;8.53;;;5.70;;
4794;SDS011;2411;47.060;15.064;2024-01-11T00:24:25;12.07;;;6.77;;
4794;SDS011;2411;47.060;15.064;2024-01-11T00:26:53;7.90;;;5.90;;
4794;SDS011;2411;47.060;15.064;2024-01-11T00:29:20;7.40;;;5.50;;
4794;SDS011;2411;47.060;15.064;2024-01-11T00:31:47;8.63;;;6.23;;
4794;SDS011;2411;47.060;15.064;2024-01-11T00:34:14;15.80;;;7.80;;
4794;SDS011;2411;47.060;15.064;2024-01-11T00:36:41;13.33;;;7.40;;
4794;SDS011;2411;47.060;15.064;2024-01-11T00:39:09;12.23;;;7.70;;
4794;SDS011;2411;47.060;15.064;2024-01-11T00:41:38;15.97;;;8.83;;
4794;SDS011;2411;47.060;15.064;2024-01-11T00:44:05;16.03;;;10.00;;
4794;SDS011;2411;47.060;15.064;2024-01-11T00:46:34;18.20;;;9.30;;
4794;SDS011;2411;47.060;15.064;2024-01-11T00:49:01;16.10;;;8.30;;
4794;SDS011;2411;47.060;15.064;2024-01-11T00:51:28;14.43;;;8.60;;
4794;SDS011;2411;47.060;15.064;2024-01-11T00:53:55;15.23;;;8.40;;
4794;SDS011;2411;47.060;15.064;2024-01-11T00:56:23;11.30;;;7.33;;
4794;SDS011;2411;47.060;15.064;2024-01-11T00:58:50;13.43;;;7.80;;
4794;SDS011;2411;47.060;15.064;2024-01-11T01:01:17;11.27;;;7.77;;
4794;SDS011;2411;47.060;15.064;2024-01-11T01:03:44;10.70;;;8.20;;
4794;SDS011;2411;47.060;15.064;2024-01-11T01:06:11;9.50;;;6.70;;
4794;SDS011;2411;47.060;15.064;2024-01-11T01:08:39;7.37;;;5.70;;
4794;SDS011;2411;47.060;15.064;2024-01-11T01:11:06;9.93;;;5.50;;
4794;SDS011;2411;47.060;15.064;2024-01-11T01:13:33;7.33;;;5.23;;
4794;SDS011;2411;47.060;15.064;2024-01-11T01:16:01;8.00;;;5.37;;
4794;SDS011;2411;47.060;15.064;2024-01-11T01:18:28;6.43;;;5.20;;
4794;SDS011;2411;47.060;15.064;2024-01-11T01:20:55;9.37;;;6.00;;
4794;SDS011;2411;47.060;15.064;2024-01-11T01:23:22;7.10;;;5.23;;
4794;SDS011;2411;47.060;15.064;2024-01-11T01:25:49;8.00;;;5.87;;
4794;SDS011;2411;47.060;15.064;2024-01-11T01:28:17;7.90;;;6.23;;
4794;SDS011;2411;47.060;15.064;2024-01-11T01:30:44;10.53;;;6.00;;
4794;SDS011;2411;47.060;15.064;2024-01-11T01:33:11;8.67;;;6.20;;
4794;SDS011;2411;47.060;15.064;2024-01-11T01:35:38;5.70;;;4.03;;
4794;SDS011;2411;47.060;15.064;2024-01-11T01:38:06;3.70;;;3.30;;
4794;SDS011;2411;47.060;15.064;2024-01-11T01:40:33;4.90;;;3.77;;
4794;SDS011;2411;47.060;15.064;2024-01-11T01:43:00;6.27;;;4.60;;
4794;SDS011;2411;47.060;15.064;2024-01-11T01:45:27;9.23;;;6.40;;
4794;SDS011;2411;47.060;15.064;2024-01-11T01:47:55;14.23;;;7.33;;
4794;SDS011;2411;47.060;15.064;2024-01-11T01:50:22;9.50;;;6.53;;
4794;SDS011;2411;47.060;15.064;2024-01-11T01:52:49;9.40;;;5.60;;
4794;SDS011;2411;47.060;15.064;2024-01-11T01:55:18;13.57;;;7.57;;
4794;SDS011;2411;47.060;15.064;2024-01-11T01:57:47;8.57;;;6.77;;
4794;SDS011;2411;47.060;15.064;2024-01-11T02:00:15;9.47;;;6.33;;
4794;SDS011;2411;47.060;15.064;2024-01-11T02:02:43;9.13;;;5.97;;
4794;SDS011;2411;47.060;15.064;2024-01-11T02:05:13;10.70;;;6.40;;
4794;SDS011;2411;47.060;15.064;2024-01-11T02:07:43;9.17;;;5.80;;
4794;SDS011;2411;47.060;15.064;2024-01-11T02:10:11;6.40;;;5.10;;
4794;SDS011;2411;47.060;15.064;2024-01-11T02:12:39;4.30;;;3.90;;
4794;SDS011;2411;47.060;15.064;2024-01-11T02:15:07;6.23;;;5.10;;
4794;SDS011;2411;47.060;15.064;2024-01-11T02:17:35;6.40;;;4.83;;
4794;SDS011;2411;47.060;15.064;2024-01-11T02:20:02;5.43;;;4.43;;
4794;SDS011;2411;47.060;15.064;2024-01-11T02:22:32;6.20;;;4.90;;
4794;SDS011;2411;47.060;15.064;2024-01-11T02:25:02;5.77;;;4.93;;
4794;SDS011;2411;47.060;15.064;2024-01-11T02:27:30;6.53;;;4.33;;
4794;SDS011;2411;47.060;15.064;2024-01-11T02:29:57;7.40;;;4.60;;
4794;SDS011;2411;47.060;15.064;2024-01-11T02:32:24;8.20;;;4.80;;
4794;SDS011;2411;47.060;15.064;2024-01-11T02:34:52;6.13;;;5.20;;
4794;SDS011;2411;47.060;15.064;2024-01-11T02:37:19;7.37;;;5.73;;
4794;SDS011;2411;47.060;15.064;2024-01-11T02:39:46;6.93;;;4.87;;
4794;SDS011;2411;47.060;15.064;2024-01-11T02:42:14;5.13;;;4.63;;
4794;SDS011;2411;47.060;15.064;2024-01-11T02:44:42;6.17;;;5.27;;
4794;SDS011;2411;47.060;15.064;2024-01-11T02:47:10;9.60;;;6.07;;
4794;SDS011;2411;47.060;15.064;2024-01-11T02:49:37;9.40;;;5.80;;
4794;SDS011;2411;47.060;15.064;2024-01-11T02:52:05;7.33;;;4.97;;
4794;SDS011;2411;47.060;15.064;2024-01-11T02:54:32;8.20;;;5.93;;
4794;SDS011;2411;47.060;15.064;2024-01-11T02:57:00;8.67;;;5.37;;
4794;SDS011;2411;47.060;15.064;2024-01-11T02:59:27;8.93;;;5.17;;
4794;SDS011;2411;47.060;15.064;2024-01-11T03:01:55;6.73;;;5.00;;
4794;SDS011;2411;47.060;15.064;2024-01-11T03:04:22;5.73;;;4.43;;
4794;SDS011;2411;47.060;15.064;2024-01-11T03:06:49;5.00;;;4.10;;
4794;SDS011;2411;47.060;15.064;2024-01-11T03:09:16;5.70;;;4.60;;
4794;SDS011;2411;47.060;15.064;2024-01-11T03:11:43;5.00;;;3.53;;
4794;SDS011;2411;47.060;15.064;2024-01-11T03:14:11;4.07;;;3.60;;
4794;SDS011;2411;47.060;15.064;2024-01-11T03:16:38;6.53;;;4.10;;
4794;SDS011;2411;47.060;15.064;2024-01-11T03:19:06;6.50;;;3.67;;
4794;SDS011;2411;47.060;15.064;2024-01-11T03:21:33;4.40;;;4.00;;
4794;SDS011;2411;47.060;15.064;2024-01-11T03:24:00;3.80;;;3.50;;
4794;SDS011;2411;47.060;15.064;2024-01-11T03:26:27;5.03;;;3.60;;
4794;SDS011;2411;47.060;15.064;2024-01-11T03:28:55;3.80;;;3.47;;
4794;SDS011;2411;47.060;15.064;2024-01-11T03:31:22;4.27;;;3.90;;
4794;SDS011;2411;47.060;15.064;2024-01-11T03:33:49;4.13;;;3.73;;
4794;SDS011;2411;47.060;15.064;2024-01-11T03:36:16;3.87;;;3.50;;
4794;SDS011;2411;47.060;15.064;2024-01-11T03:38:43;3.83;;;3.43;;
4794;SDS011;2411;47.060;15.064;2024-01-11T03:41:11;4.80;;;4.33;;
4794;SDS011;2411;47.060;15.064;2024-01-11T03:43:39;4.43;;;4.03;;
4794;SDS011;2411;47.060;15.064;2024-01-11T03:46:06;6.43;;;4.93;;
4794;SDS011;2411;47.060;15.064;2024-01-11T03:48:33;5.33;;;4.57;;
4794;SDS011;2411;47.060;15.064;2024-01-11T03:51:02;8.33;;;4.43;;
4794;SDS011;2411;47.060;15.064;2024-01-11T03:53:30;7.60;;;4.57;;
4794;SDS011;2411;47.060;15.064;2024-01-11T03:56:00;7.00;;;4.60;;
4794;SDS011;2411;47.060;15.064;2024-01-11T03:58:28;6.60;;;4.87;;
4794;SDS011;2411;47.060;15.064;2024-01-11T04:00:55;6.27;;;4.40;;
4794;SDS011;2411;47.060;15.064;2024-01-11T04:03:23;4.80;;;4.10;;
4794;SDS011;2411;47.060;15.064;2024-01-11T04:05:50;6.20;;;4.10;;
4794;SDS011;2411;47.060;15.064;2024-01-11T04:08:17;5.50;;;3.27;;
4794;SDS011;2411;47.060;15.064;2024-01-11T04:10:44;4.40;;;4.00;;
4794;SDS011;2411;47.060;15.064;2024-01-11T04:13:12;12.03;;;3.63;;
4794;SDS011;2411;47.060;15.064;2024-01-11T04:15:39;4.20;;;3.70;;
4794;SDS011;2411;47.060;15.064;2024-01-11T04:18:06;3.77;;;3.47;;
4794;SDS011;2411;47.060;15.064;2024-01-11T04:20:33;4.80;;;3.93;;
4794;SDS011;2411;47.060;15.064;2024-01-11T04:23:01;6.97;;;3.30;;
4794;SDS011;2411;47.060;15.064;2024-01-11T04:25:28;4.40;;;3.50;;
4794;SDS011;2411;47.060;15.064;2024-01-11T04:27:55;3.80;;;3.40;;
4794;SDS011;2411;47.060;15.064;2024-01-11T04:30:23;3.53;;;3.23;;
4794;SDS011;2411;47.060;15.064;2024-01-11T04:32:50;5.97;;;4.07;;
4794;SDS011;2411;47.060;15.064;2024-01-11T04:35:17;4.03;;;3.33;;
4794;SDS011;2411;47.060;15.064;2024-01-11T04:37:44;4.43;;;3.63;;
4794;SDS011;2411;47.060;15.064;2024-01-11T04:40:12;3.67;;;3.37;;
4794;SDS011;2411;47.060;15.064;2024-01-11T04:42:39;4.10;;;3.43;;
4794;SDS011;2411;47.060;15.064;2024-01-11T04:45:06;7.13;;;4.07;;
4794;SDS011;2411;47.060;15.064;2024-01-11T04:47:33;4.43;;;4.00;;
4794;SDS011;2411;47.060;15.064;2024-01-11T04:50:01;4.23;;;3.60;;
4794;SDS011;2411;47.060;15.064;2024-01-11T04:52:28;5.80;;;3.80;;
4794;SDS011;2411;47.060;15.064;2024-01-11T04:54:55;3.10;;;2.83;;
4794;SDS011;2411;47.060;15.064;2024-01-11T04:57:22;4.23;;;3.63;;
4794;SDS011;2411;47.060;15.064;2024-01-11T04:59:49;4.47;;;3.80;;
4794;SDS011;2411;47.060;15.064;2024-01-11T05:02:17;5.50;;;3.30;;
4794;SDS011;2411;47.060;15.064;2024-01-11T05:04:47;3.90;;;3.50;;
4794;SDS011;2411;47.060;15.064;2024-01-11T05:07:15;2.90;;;2.70;;
4794;SDS011;2411;47.060;15.064;2024-01-11T05:09:42;5.00;;;3.10;;
4794;SDS011;2411;47.060;15.064;2024-01-11T05:12:09;3.77;;;3.47;;
4794;SDS011;2411;47.060;15.064;2024-01-11T05:14:36;3.93;;;3.40;;
4794;SDS011;2411;47.060;15.064;2024-01-11T05:17:04;2.73;;;2.63;;
4794;SDS011;2411;47.060;15.064;2024-01-11T05:19:31;3.77;;;3.40;;
4794;SDS011;2411;47.060;15.064;2024-01-11T05:21:58;3.97;;;3.60;;
4794;SDS011;2411;47.060;15.064;2024-01-11T05:24:26;3.70;;;3.40;;
4794;SDS011;2411;47.060;15.064;2024-01-11T05:26:53;3.27;;;2.97;;
4794;SDS011;2411;47.060;15.064;2024-01-11T05:29:20;3.60;;;3.30;;
4794;SDS011;2411;47.060;15.064;2024-01-11T05:31:47;5.03;;;3.50;;
4794;SDS011;2411;47.060;15.064;2024-01-11T05:34:15;3.80;;;3.50;;
4794;SDS011;2411;47.060;15.064;2024-01-11T05:36:42;9.67;;;4.70;;
4794;SDS011;2411;47.060;15.064;2024-01-11T05:39:09;8.27;;;4.50;;
4794;SDS011;2411;47.060;15.064;2024-01-11T05:41:36;13.87;;;5.00;;
4794;SDS011;2411;47.060;15.064;2024-01-11T05:44:04;4.80;;;4.40;;
4794;SDS011;2411;47.060;15.064;2024-01-11T05:46:31;4.63;;;3.70;;
4794;SDS011;2411;47.060;15.064;2024-01-11T05:48:59;4.50;;;4.10;;
4794;SDS011;2411;47.060;15.064;2024-01-11T05:51:26;4.03;;;3.37;;
4794;SDS011;2411;47.060;15.064;2024-01-11T05:53:54;4.10;;;3.70;;
4794;SDS011;2411;47.060;15.064;2024-01-11T05:56:21;3.30;;;3.00;;
4794;SDS011;2411;47.060;15.064;2024-01-11T05:58:48;5.00;;;4.10;;
4794;SDS011;2411;47.060;15.064;2024-01-11T06:01:16;4.10;;;3.23;;
4794;SDS011;2411;47.060;15.064;2024-01-11T06:03:43;5.27;;;4.17;;
4794;SDS011;2411;47.060;15.064;2024-01-11T06:06:10;5.87;;;4.23;;
4794;SDS011;2411;47.060;15.064;2024-01-11T06:08:38;5.17;;;4.23;;
4794;SDS011;2411;47.060;15.064;2024-01-11T06:11:05;4.57;;;4.00;;
4794;SDS011;2411;47.060;15.064;2024-01-11T06:13:34;5.00;;;4.37;;
4794;SDS011;2411;47.060;15.064;2024-01-11T06:16:02;11.73;;;5.80;;
4794;SDS011;2411;47.060;15.064;2024-01-11T06:18:29;6.33;;;5.60;;
4794;SDS011;2411;47.060;15.064;2024-01-11T06:20:57;7.90;;;5.77;;
4794;SDS011;2411;47.060;15.064;2024-01-11T06:23:25;5.50;;;4.97;;
4794;SDS011;2411;47.060;15.064;2024-01-11T06:25:52;8.37;;;5.87;;
4794;SDS011;2411;47.060;15.064;2024-01-11T06:28:19;5.83;;;4.70;;
4794;SDS011;2411;47.060;15.064;2024-01-11T06:30:46;7.33;;;4.63;;
4794;SDS011;2411;47.060;15.064;2024-01-11T06:33:14;7.80;;;4.77;;
4794;SDS011;2411;47.060;15.064;2024-01-11T06:35:41;3.93;;;3.63;;
4794;SDS011;2411;47.060;15.064;2024-01-11T06:38:08;3.43;;;3.13;;
4794;SDS011;2411;47.060;15.064;2024-01-11T06:40:36;3.83;;;3.43;;
4794;SDS011;2411;47.060;15.064;2024-01-11T06:43:03;3.57;;;3.27;;
4794;SDS011;2411;47.060;15.064;2024-01-11T06:45:31;7.03;;;3.27;;
4794;SDS011;2411;47.060;15.064;2024-01-11T06:47:58;3.70;;;3.40;;
4794;SDS011;2411;47.060;15.064;2024-01-11T06:50:25;3.63;;;3.30;;
4794;SDS011;2411;47.060;15.064;2024-01-11T06:52:53;2.90;;;2.70;;
4794;SDS011;2411;47.060;15.064;2024-01-11T06:55:20;3.47;;;3.10;;
4794;SDS011;2411;47.060;15.064;2024-01-11T06:57:47;10.20;;;4.03;;
4794;SDS011;2411;47.060;15.064;2024-01-11T07:00:14;3.53;;;3.23;;
4794;SDS011;2411;47.060;15.064;2024-01-11T07:02:42;4.40;;;4.00;;
4794;SDS011;2411;47.060;15.064;2024-01-11T07:05:09;5.03;;;4.37;;
4794;SDS011;2411;47.060;15.064;2024-01-11T07:07:36;9.40;;;8.33;;
4794;SDS011;2411;47.060;15.064;2024-01-11T07:10:04;9.10;;;5.67;;
4794;SDS011;2411;47.060;15.064;2024-01-11T07:12:32;8.80;;;6.43;;
4794;SDS011;2411;47.060;15.064;2024-01-11T07:14:59;7.13;;;5.40;;
4794;SDS011;2411;47.060;15.064;2024-01-11T07:17:26;7.77;;;4.97;;
4794;SDS011;2411;47.060;15.064;2024-01-11T07:19:54;6.00;;;4.70;;
4794;SDS011;2411;47.060;15.064;2024-01-11T07:22:21;9.50;;;6.03;;
4794;SDS011;2411;47.060;15.064;2024-01-11T07:24:48;16.40;;;5.60;;
4794;SDS011;2411;47.060;15.064;2024-01-11T07:27:16;7.57;;;6.03;;
4794;SDS011;2411;47.060;15.064;2024-01-11T07:29:43;6.33;;;5.13;;
4794;SDS011;2411;47.060;15.064;2024-01-11T07:32:10;11.03;;;5.43;;
4794;SDS011;2411;47.060;15.064;2024-01-11T07:34:38;5.13;;;4.50;;
4794;SDS011;2411;47.060;15.064;2024-01-11T07:37:05;6.00;;;4.67;;
4794;SDS011;2411;47.060;15.064;2024-01-11T07:39:33;12.43;;;5.07;;
4794;SDS011;2411;47.060;15.064;2024-01-11T07:42:00;8.80;;;5.80;;
4794;SDS011;2411;47.060;15.064;2024-01-11T07:44:28;14.07;;;7.90;;
4794;SDS011;2411;47.060;15.064;2024-01-11T07:46:55;16.70;;;9.70;;
4794;SDS011;2411;47.060;15.064;2024-01-11T07:49:27;18.60;;;9.60;;
4794;SDS011;2411;47.060;15.064;2024-01-11T07:51:54;12.47;;;8.70;;
4794;SDS011;2411;47.060;15.064;2024-01-11T07:54:21;11.30;;;7.40;;
4794;SDS011;2411;47.060;15.064;2024-01-11T07:56:49;17.50;;;9.60;;
4794;SDS011;2411;47.060;15.064;2024-01-11T07:59:16;18.73;;;11.03;;
4794;SDS011;2411;47.060;15.064;2024-01-11T08:01:43;16.30;;;10.37;;
4794;SDS011;2411;47.060;15.064;2024-01-11T08:04:11;9.83;;;8.43;;
4794;SDS011;2411;47.060;15.064;2024-01-11T08:06:39;15.87;;;9.83;;
4794;SDS011;2411;47.060;15.064;2024-01-11T08:09:06;12.30;;;7.87;;
4794;SDS011;2411;47.060;15.064;2024-01-11T08:11:37;11.90;;;8.50;;
4794;SDS011;2411;47.060;15.064;2024-01-11T08:14:08;10.23;;;6.60;;
4794;SDS011;2411;47.060;15.064;2024-01-11T08:16:35;17.27;;;6.00;;
4794;SDS011;2411;47.060;15.064;2024-01-11T08:19:02;5.53;;;4.70;;
4794;SDS011;2411;47.060;15.064;2024-01-11T08:21:30;7.60;;;5.63;;
4794;SDS011;2411;47.060;15.064;2024-01-11T08:23:57;6.87;;;4.57;;
4794;SDS011;2411;47.060;15.064;2024-01-11T08:26:29;5.73;;;4.30;;
4794;SDS011;2411;47.060;15.064;2024-01-11T08:28:57;5.07;;;4.57;;
4794;SDS011;2411;47.060;15.064;2024-01-11T08:31:25;5.53;;;5.03;;
4794;SDS011;2411;47.060;15.064;2024-01-11T08:33:52;11.03;;;4.97;;
4794;SDS011;2411;47.060;15.064;2024-01-11T08:36:20;6.13;;;4.70;;
4794;SDS011;2411;47.060;15.064;2024-01-11T08:38:47;5.40;;;4.80;;
4794;SDS011;2411;47.060;15.064;2024-01-11T08:41:16;6.53;;;5.43;;
4794;SDS011;2411;47.060;15.064;2024-01-11T08:43:43;6.27;;;4.90;;
4794;SDS011;2411;47.060;15.064;2024-01-11T08:46:10;7.33;;;5.30;;
4794;SDS011;2411;47.060;15.064;2024-01-11T08:48:38;9.60;;;6.10;;
4794;SDS011;2411;47.060;15.064;2024-01-11T08:51:05;8.77;;;5.63;;
4794;SDS011;2411;47.060;15.064;2024-01-11T08:53:32;7.80;;;5.90;;
4794;SDS011;2411;47.060;15.064;2024-01-11T08:56:00;6.10;;;4.90;;
4794;SDS011;2411;47.060;15.064;2024-01-11T08:58:27;9.37;;;4.83;;
4794;SDS011;2411;47.060;15.064;2024-01-11T09:00:54;5.70;;;5.07;;
4794;SDS011;2411;47.060;15.064;2024-01-11T09:03:22;5.80;;;4.40;;
4794;SDS011;2411;47.060;15.064;2024-01-11T09:05:49;4.33;;;3.70;;
4794;SDS011;2411;47.060;15.064;2024-01-11T09:08:17;4.53;;;4.13;;
4794;SDS011;2411;47.060;15.064;2024-01-11T09:10:44;9.50;;;4.30;;
4794;SDS011;2411;47.060;15.064;2024-01-11T09:13:11;12.37;;;4.40;;
4794;SDS011;2411;47.060;15.064;2024-01-11T09:15:40;5.60;;;4.20;;
4794;SDS011;2411;47.060;15.064;2024-01-11T09:18:08;10.00;;;4.40;;
4794;SDS011;2411;47.060;15.064;2024-01-11T09:20:36;5.33;;;4.20;;
4794;SDS011;2411;47.060;15.064;2024-01-11T09:23:03;5.23;;;4.60;;
4794;SDS011;2411;47.060;15.064;2024-01-11T09:25:31;7.63;;;4.47;;
4794;SDS011;2411;47.060;15.064;2024-01-11T09:27:58;16.77;;;4.60;;
4794;SDS011;2411;47.060;15.064;2024-01-11T09:30:26;13.90;;;5.50;;
4794;SDS011;2411;47.060;15.064;2024-01-11T09:32:53;5.10;;;4.30;;
4794;SDS011;2411;47.060;15.064;2024-01-11T09:35:24;6.93;;;4.13;;
4794;SDS011;2411;47.060;15.064;2024-01-11T09:37:51;5.80;;;5.20;;
4794;SDS011;2411;47.060;15.064;2024-01-11T09:40:18;7.20;;;4.90;;
4794;SDS011;2411;47.060;15.064;2024-01-11T09:42:46;4.07;;;3.70;;
4794;SDS011;2411;47.060;15.064;2024-01-11T09:45:13;12.23;;;5.73;;
4794;SDS011;2411;47.060;15.064;2024-01-11T09:47:44;6.43;;;5.80;;
4794;SDS011;2411;47.060;15.064;2024-01-11T09:50:13;7.07;;;4.50;;
4794;SDS011;2411;47.060;15.064;2024-01-11T09:52:48;8.63;;;5.20;;
4794;SDS011;2411;47.060;15.064;2024-01-11T09:55:17;7.73;;;5.07;;
4794;SDS011;2411;47.060;15.064;2024-01-11T09:57:46;6.00;;;4.53;;
4794;SDS011;2411;47.060;15.064;2024-01-11T10:00:16;5.90;;;5.30;;
4794;SDS011;2411;47.060;15.064;2024-01-11T10:02:45;6.23;;;5.03;;
4794;SDS011;2411;47.060;15.064;2024-01-11T10:05:13;6.97;;;5.07;;
4794;SDS011;2411;47.060;15.064;2024-01-11T10:07:43;7.70;;;4.77;;
4794;SDS011;2411;47.060;15.064;2024-01-11T10:10:10;7.17;;;4.20;;
4794;SDS011;2411;47.060;15.064;2024-01-11T10:12:37;5.70;;;4.43;;
4794;SDS011;2411;47.060;15.064;2024-01-11T10:15:05;6.10;;;5.30;;
4794;SDS011;2411;47.060;15.064;2024-01-11T10:17:43;7.90;;;5.10;;
4794;SDS011;2411;47.060;15.064;2024-01-11T10:20:12;6.90;;;5.20;;
4794;SDS011;2411;47.060;15.064;2024-01-11T10:22:44;5.20;;;4.30;;
4794;SDS011;2411;47.060;15.064;2024-01-11T10:25:14;4.70;;;3.93;;
4794;SDS011;2411;47.060;15.064;2024-01-11T10:27:44;6.50;;;4.00;;
4794;SDS011;2411;47.060;15.064;2024-01-11T10:30:12;5.07;;;4.30;;
4794;SDS011;2411;47.060;15.064;2024-01-11T10:32:43;4.97;;;4.47;;
4794;SDS011;2411;47.060;15.064;2024-01-11T10:35:11;4.90;;;4.40;;
4794;SDS011;2411;47.060;15.064;2024-01-11T10:37:38;3.87;;;3.47;;
4794;SDS011;2411;47.060;15.064;2024-01-11T10:40:07;5.50;;;4.17;;
4794;SDS011;2411;47.060;15.064;2024-01-11T10:42:45;5.00;;;4.50;;
4794;SDS011;2411;47.060;15.064;2024-01-11T10:48:06;10.17;;;4.53;;
4794;SDS011;2411;47.060;15.064;2024-01-11T10:50:43;5.37;;;3.93;;
4794;SDS011;2411;47.060;15.064;2024-01-11T10:55:41;4.47;;;3.80;;
4794;SDS011;2411;47.060;15.064;2024-01-11T10:58:10;4.43;;;3.97;;
4794;SDS011;2411;47.060;15.064;2024-01-11T11:00:38;7.03;;;3.43;;
4794;SDS011;2411;47.060;15.064;2024-01-11T11:03:05;4.67;;;4.20;;
4794;SDS011;2411;47.060;15.064;2024-01-11T11:05:35;7.83;;;4.23;;
4794;SDS011;2411;47.060;15.064;2024-01-11T11:08:04;6.80;;;5.33;;
4794;SDS011;2411;47.060;15.064;2024-01-11T11:10:33;7.83;;;5.07;;
4794;SDS011;2411;47.060;15.064;2024-01-11T11:13:00;12.93;;;4.70;;
4794;SDS011;2411;47.060;15.064;2024-01-11T11:15:29;5.47;;;4.60;;
4794;SDS011;2411;47.060;15.064;2024-01-11T11:17:58;3.90;;;3.60;;
4794;SDS011;2411;47.060;15.064;2024-01-11T11:20:27;5.30;;;4.27;;
4794;SDS011;2411;47.060;15.064;2024-01-11T11:23:07;6.40;;;3.93;;
4794;SDS011;2411;47.060;15.064;2024-01-11T11:25:36;20.67;;;4.50;;
4794;SDS011;2411;47.060;15.064;2024-01-11T11:28:05;5.43;;;3.87;;
4794;SDS011;2411;47.060;15.064;2024-01-11T11:30:36;5.70;;;3.43;;
4794;SDS011;2411;47.060;15.064;2024-01-11T11:33:11;3.77;;;3.03;;
4794;SDS011;2411;47.060;15.064;2024-01-11T11:35:46;3.87;;;3.47;;
4794;SDS011;2411;47.060;15.064;2024-01-11T11:38:17;10.87;;;3.40;;
4794;SDS011;2411;47.060;15.064;2024-01-11T11:40:47;3.63;;;3.33;;
4794;SDS011;2411;47.060;15.064;2024-01-11T11:43:16;5.53;;;3.60;;
4794;SDS011;2411;47.060;15.064;2024-01-11T11:45:47;5.23;;;3.30;;
4794;SDS011;2411;47.060;15.064;2024-01-11T11:51:29;8.23;;;3.70;;
4794;SDS011;2411;47.060;15.064;2024-01-11T11:53:53;4.07;;;3.30;;
4794;SDS011;2411;47.060;15.064;2024-01-11T11:56:21;5.30;;;3.43;;
4794;SDS011;2411;47.060;15.064;2024-01-11T11:58:49;4.83;;;3.20;;
4794;SDS011;2411;47.060;15.064;2024-01-11T12:01:19;6.17;;;3.43;;
4794;SDS011;2411;47.060;15.064;2024-01-11T12:03:47;4.07;;;3.13;;
4794;SDS011;2411;47.060;15.064;2024-01-11T12:06:16;4.30;;;3.20;;
4794;SDS011;2411;47.060;15.064;2024-01-11T12:08:46;6.20;;;3.80;;
4794;SDS011;2411;47.060;15.064;2024-01-11T12:11:15;3.90;;;3.40;;
4794;SDS011;2411;47.060;15.064;2024-01-11T12:13:48;4.83;;;3.43;;
4794;SDS011;2411;47.060;15.064;2024-01-11T12:16:16;4.57;;;3.40;;
4794;SDS011;2411;47.060;15.064;2024-01-11T12:18:43;8.47;;;5.40;;
4794;SDS011;2411;47.060;15.064;2024-01-11T12:21:11;5.87;;;3.87;;
4794;SDS011;2411;47.060;15.064;2024-01-11T12:23:39;4.83;;;3.47;;
4794;SDS011;2411;47.060;15.064;2024-01-11T12:26:07;4.33;;;3.50;;
4794;SDS011;2411;47.060;15.064;2024-01-11T12:28:42;5.40;;;3.47;;
4794;SDS011;2411;47.060;15.064;2024-01-11T12:31:11;5.77;;;3.13;;
4794;SDS011;2411;47.060;15.064;2024-01-11T12:33:39;5.20;;;3.50;;
4794;SDS011;2411;47.060;15.064;2024-01-11T12:36:08;5.53;;;3.17;;
4794;SDS011;2411;47.060;15.064;2024-01-11T12:38:35;3.30;;;3.00;;
4794;SDS011;2411;47.060;15.064;2024-01-11T12:41:03;5.57;;;3.63;;
4794;SDS011;2411;47.060;15.064;2024-01-11T12:43:32;5.33;;;3.07;;
4794;SDS011;2411;47.060;15.064;2024-01-11T12:46:01;5.67;;;3.63;;
4794;SDS011;2411;47.060;15.064;2024-01-11T12:48:29;2.83;;;2.60;;
4794;SDS011;2411;47.060;15.064;2024-01-11T12:50:57;3.50;;;3.20;;
4794;SDS011;2411;47.060;15.064;2024-01-11T12:53:46;6.10;;;2.93;;
4794;SDS011;2411;47.060;15.064;2024-01-11T12:56:18;2.77;;;2.57;;
4794;SDS011;2411;47.060;15.064;2024-01-11T12:58:48;3.87;;;3.13;;
4794;SDS011;2411;47.060;15.064;2024-01-11T13:01:15;3.03;;;2.70;;
4794;SDS011;2411;47.060;15.064;2024-01-11T13:03:44;3.73;;;2.47;;
4794;SDS011;2411;47.060;15.064;2024-01-11T13:06:14;2.93;;;2.70;;
4794;SDS011;2411;47.060;15.064;2024-01-11T13:08:42;3.97;;;2.73;;
4794;SDS011;2411;47.060;15.064;2024-01-11T13:11:09;3.23;;;2.77;;
4794;SDS011;2411;47.060;15.064;2024-01-11T13:13:40;3.63;;;3.33;;
4794;SDS011;2411;47.060;15.064;2024-01-11T13:16:07;3.90;;;3.27;;
4794;SDS011;2411;47.060;15.064;2024-01-11T13:18:41;3.40;;;3.10;;
4794;SDS011;2411;47.060;15.064;2024-01-11T13:21:08;4.00;;;3.03;;
4794;SDS011;2411;47.060;15.064;2024-01-11T13:23:39;2.33;;;2.20;;
4794;SDS011;2411;47.060;15.064;2024-01-11T13:26:07;2.40;;;2.20;;
4794;SDS011;2411;47.060;15.064;2024-01-11T13:28:35;6.50;;;2.37;;
4794;SDS011;2411;47.060;15.064;2024-01-11T13:31:02;5.20;;;2.60;;
4794;SDS011;2411;47.060;15.064;2024-01-11T13:33:30;3.50;;;2.60;;
4794;SDS011;2411;47.060;15.064;2024-01-11T13:35:57;2.17;;;1.83;;
4794;SDS011;2411;47.060;15.064;2024-01-11T13:38:25;2.33;;;2.07;;
4794;SDS011;2411;47.060;15.064;2024-01-11T13:40:53;3.67;;;3.17;;
4794;SDS011;2411;47.060;15.064;2024-01-11T13:43:20;2.17;;;2.07;;
4794;SDS011;2411;47.060;15.064;2024-01-11T13:45:47;2.60;;;2.40;;
4794;SDS011;2411;47.060;15.064;2024-01-11T13:48:15;4.63;;;3.00;;
4794;SDS011;2411;47.060;15.064;2024-01-11T13:50:42;4.90;;;3.97;;
4794;SDS011;2411;47.060;15.064;2024-01-11T13:53:10;10.73;;;5.00;;
4794;SDS011;2411;47.060;15.064;2024-01-11T13:55:37;4.83;;;3.87;;
4794;SDS011;2411;47.060;15.064;2024-01-11T13:58:06;5.00;;;4.03;;
4794;SDS011;2411;47.060;15.064;2024-01-11T14:00:34;3.80;;;3.50;;
4794;SDS011;2411;47.060;15.064;2024-01-11T14:03:01;6.03;;;4.30;;
4794;SDS011;2411;47.060;15.064;2024-01-11T14:05:30;5.50;;;4.33;;
4794;SDS011;2411;47.060;15.064;2024-01-11T14:07:57;7.80;;;4.87;;
4794;SDS011;2411;47.060;15.064;2024-01-11T14:10:26;6.10;;;4.93;;
4794;SDS011;2411;47.060;15.064;2024-01-11T14:12:54;4.80;;;4.07;;
4794;SDS011;2411;47.060;15.064;2024-01-11T14:15:21;6.67;;;4.13;;
4794;SDS011;2411;47.060;15.064;2024-01-11T14:17:49;9.27;;;5.63;;
4794;SDS011;2411;47.060;15.064;2024-01-11T14:20:17;9.67;;;5.60;;
4794;SDS011;2411;47.060;15.064;2024-01-11T14:22:45;5.93;;;4.60;;
4794;SDS011;2411;47.060;15.064;2024-01-11T14:25:19;5.87;;;4.07;;
4794;SDS011;2411;47.060;15.064;2024-01-11T14:27:48;9.20;;;4.50;;
4794;SDS011;2411;47.060;15.064;2024-01-11T14:30:16;5.90;;;4.50;;
4794;SDS011;2411;47.060;15.064;2024-01-11T14:32:43;7.63;;;4.43;;
4794;SDS011;2411;47.060;15.064;2024-01-11T14:35:12;7.10;;;5.20;;
4794;SDS011;2411;47.060;15.064;2024-01-11T14:37:40;5.93;;;4.40;;
4794;SDS011;2411;47.060;15.064;2024-01-11T14:40:09;9.90;;;4.07;;
4794;SDS011;2411;47.060;15.064;2024-01-11T14:42:37;5.67;;;4.67;;
4794;SDS011;2411;47.060;15.064;2024-01-11T14:45:05;7.20;;;4.47;;
4794;SDS011;2411;47.060;15.064;2024-01-11T14:47:33;4.03;;;3.73;;
4794;SDS011;2411;47.060;15.064;2024-01-11T14:50:02;12.33;;;5.60;;
4794;SDS011;2411;47.060;15.064;2024-01-11T14:52:31;8.57;;;5.03;;
4794;SDS011;2411;47.060;15.064;2024-01-11T14:54:58;7.00;;;4.93;;
4794;SDS011;2411;47.060;15.064;2024-01-11T14:57:26;7.43;;;5.20;;
4794;SDS011;2411;47.060;15.064;2024-01-11T14:59:53;9.27;;;5.30;;
4794;SDS011;2411;47.060;15.064;2024-01-11T15:02:21;8.47;;;5.50;;
4794;SDS011;2411;47.060;15.064;2024-01-11T15:04:48;8.70;;;4.43;;
4794;SDS011;2411;47.060;15.064;2024-01-11T15:07:15;7.43;;;4.57;;
4794;SDS011;2411;47.060;15.064;2024-01-11T15:09:43;6.63;;;4.40;;
4794;SDS011;2411;47.060;15.064;2024-01-11T15:12:10;6.73;;;4.87;;
4794;SDS011;2411;47.060;15.064;2024-01-11T15:14:37;6.83;;;5.40;;